SFO weather

San Francisco International Airport
San Francisco, California, United States

Public forecast

Using degrees Fahrenheit for public forecast. Weather courtesy of forecast.io.

METAR (pilot weather report)

Retrieved 2017/05/30 09:56 UTC (50 minutes ago):

KSFO 300956Z 26018G22KT 10SM FEW006 BKN008 OVC011 12/09 A2997 RMK AO2 SLP148 T01170094

TAF (pilot weather forecast)

Retrieved 2017/05/30 06:36 UTC (4 hours ago):

TAF KSFO 300535Z 3006/3112 26015G25KT P6SM FEW007 BKN009 OVC012 FM301200 27014KT P6SM OVC007 FM302000 27020G26KT P6SM BKN015 FM310400 27020G26KT P6SM OVC007